Home > Products > Valid Products > TAF

000
FTUS44 KMRX 290522
TAFTRI
TAF
KTRI 290522Z 2906/3006 00000KT P6SM SCT070 BKN250
      TEMPO 2908/2912 4SM BR
     FM291500 23005KT P6SM SCT050
     FM300100 00000KT P6SM SCT050 BKN250=



000
FTUS44 KMRX 290522
TAFTYS
TAF
KTYS 290522Z 2906/3006 VRB03KT P6SM FEW100 BKN250
     FM290800 VRB03KT P6SM FEW040 SCT120
     FM291500 23006KT P6SM SCT060 BKN250
     FM300100 24003KT P6SM SCT040 BKN090=



000
FTUS44 KMRX 290522
TAFTYS
TAF
KTYS 290522Z 2906/3006 VRB03KT P6SM FEW100 BKN250
     FM290800 VRB03KT P6SM FEW040 SCT120
     FM291500 23006KT P6SM SCT060 BKN250
     FM300100 24003KT P6SM SCT040 BKN090=



000
FTUS44 KMRX 290522
TAFCHA
TAF
KCHA 290522Z 2906/3006 00000KT P6SM FEW050 BKN250
     FM290900 VRB02KT P6SM SCT030 BKN150
     FM291500 18008KT P6SM SCT050 BKN080
     FM300100 00000KT P6SM SCT030 BKN050=



000
FTUS44 KMRX 290522
TAFTRI
TAF
KTRI 290522Z 2906/3006 00000KT P6SM SCT070 BKN250
      TEMPO 2908/2912 4SM BR
     FM291500 23005KT P6SM SCT050
     FM300100 00000KT P6SM SCT050 BKN250=



000
FTUS44 KMRX 290522
TAFCHA
TAF
KCHA 290522Z 2906/3006 00000KT P6SM FEW050 BKN250
     FM290900 VRB02KT P6SM SCT030 BKN150
     FM291500 18008KT P6SM SCT050 BKN080
     FM300100 00000KT P6SM SCT030 BKN050=



000
FTUS44 KMRX 290522
TAFCHA
TAF
KCHA 290522Z 2906/3006 00000KT P6SM FEW050 BKN250
     FM290900 VRB02KT P6SM SCT030 BKN150
     FM291500 18008KT P6SM SCT050 BKN080
     FM300100 00000KT P6SM SCT030 BKN050=



000
FTUS44 KMRX 290522
TAFTYS
TAF
KTYS 290522Z 2906/3006 VRB03KT P6SM FEW100 BKN250
     FM290800 VRB03KT P6SM FEW040 SCT120
     FM291500 23006KT P6SM SCT060 BKN250
     FM300100 24003KT P6SM SCT040 BKN090=



000
FTUS44 KMRX 290522
TAFTRI
TAF
KTRI 290522Z 2906/3006 00000KT P6SM SCT070 BKN250
      TEMPO 2908/2912 4SM BR
     FM291500 23005KT P6SM SCT050
     FM300100 00000KT P6SM SCT050 BKN250=



000
FTUS44 KMRX 290522
TAFTYS
TAF
KTYS 290522Z 2906/3006 VRB03KT P6SM FEW100 BKN250
     FM290800 VRB03KT P6SM FEW040 SCT120
     FM291500 23006KT P6SM SCT060 BKN250
     FM300100 24003KT P6SM SCT040 BKN090=



000
FTUS44 KMRX 290522
TAFTRI
TAF
KTRI 290522Z 2906/3006 00000KT P6SM SCT070 BKN250
      TEMPO 2908/2912 4SM BR
     FM291500 23005KT P6SM SCT050
     FM300100 00000KT P6SM SCT050 BKN250=



000
FTUS44 KMRX 290522
TAFCHA
TAF
KCHA 290522Z 2906/3006 00000KT P6SM FEW050 BKN250
     FM290900 VRB02KT P6SM SCT030 BKN150
     FM291500 18008KT P6SM SCT050 BKN080
     FM300100 00000KT P6SM SCT030 BKN050=



000
FTUS44 KMRX 282336
TAFCHA
TAF
KCHA 282336Z 2900/2924 16006KT P6SM SCT050 BKN080
     FM290900 VRB02KT P6SM SCT030 BKN050
     FM291500 16006KT P6SM SCT040 BKN070=



000
FTUS44 KMRX 282336
TAFTYS
TAF
KTYS 282336Z 2900/2924 VRB04KT P6SM SCT050
     FM290800 VRB03KT P6SM FEW040 SCT120
     FM291500 23006KT P6SM SCT050=



000
FTUS44 KMRX 282336
TAFTRI
TAF
KTRI 282336Z 2900/2924 00000KT P6SM SCT050
      TEMPO 2908/2912 4SM BR
     FM291500 23005KT P6SM SCT050=



000
FTUS44 KMRX 282336
TAFTRI
TAF
KTRI 282336Z 2900/2924 00000KT P6SM SCT050
      TEMPO 2908/2912 4SM BR
     FM291500 23005KT P6SM SCT050=



000
FTUS44 KMRX 282336
TAFCHA
TAF
KCHA 282336Z 2900/2924 16006KT P6SM SCT050 BKN080
     FM290900 VRB02KT P6SM SCT030 BKN050
     FM291500 16006KT P6SM SCT040 BKN070=



000
FTUS44 KMRX 282336
TAFTYS
TAF
KTYS 282336Z 2900/2924 VRB04KT P6SM SCT050
     FM290800 VRB03KT P6SM FEW040 SCT120
     FM291500 23006KT P6SM SCT050=



000
FTUS44 KMRX 281737
TAFCHA
TAF
KCHA 281737Z 2818/2918 15004KT P6SM SCT040 BKN080
     FM290700 16003KT P6SM BKN030
     FM291300 16006KT P6SM VCSH BKN030=



000
FTUS44 KMRX 281737
TAFTYS
TAF
KTYS 281737Z 2818/2918 VRB04KT P6SM SCT040
     FM290800 VRB03KT 6SM BR FEW030 SCT120
     FM291300 23006KT P6SM SCT040=



000
FTUS44 KMRX 281737
TAFTRI
TAF
KTRI 281737Z 2818/2918 13003KT P6SM SCT040
     FM290500 00000KT 5SM BR SCT250
     FM290700 00000KT 2SM BR SCT250
     FM291000 00000KT 1SM BR SCT250
     FM291300 00000KT 3SM BR SCT250
     FM291400 VRB03KT P6SM SCT250=



000
FTUS44 KMRX 281737
TAFCHA
TAF
KCHA 281737Z 2818/2918 15004KT P6SM SCT040 BKN080
     FM290700 16003KT P6SM BKN030
     FM291300 16006KT P6SM VCSH BKN030=



000
FTUS44 KMRX 281737
TAFTYS
TAF
KTYS 281737Z 2818/2918 VRB04KT P6SM SCT040
     FM290800 VRB03KT 6SM BR FEW030 SCT120
     FM291300 23006KT P6SM SCT040=



000
FTUS44 KMRX 281737
TAFTRI
TAF
KTRI 281737Z 2818/2918 13003KT P6SM SCT040
     FM290500 00000KT 5SM BR SCT250
     FM290700 00000KT 2SM BR SCT250
     FM291000 00000KT 1SM BR SCT250
     FM291300 00000KT 3SM BR SCT250
     FM291400 VRB03KT P6SM SCT250=



000
FTUS44 KMRX 281518 AAB
TAFCHA
TAF AMD
KCHA 281518Z 2815/2912 06004KT P6SM BKN040
     FM281600 12004KT P6SM SCT040 SCT080
     FM290400 14003KT P6SM FEW050 SCT100=



000
FTUS44 KMRX 281518 AAB
TAFCHA
TAF AMD
KCHA 281518Z 2815/2912 06004KT P6SM BKN040
     FM281600 12004KT P6SM SCT040 SCT080
     FM290400 14003KT P6SM FEW050 SCT100=



000
FTUS44 KMRX 281329 AAA
TAFCHA
TAF AMD
KCHA 281329Z 2813/2912 04006KT P6SM BKN025
     FM281500 06004KT P6SM BKN030
     FM281700 12004KT P6SM SCT030 BKN080
     FM290400 14003KT P6SM FEW050 SCT100=



000
FTUS44 KMRX 281329 AAA
TAFCHA
TAF AMD
KCHA 281329Z 2813/2912 04006KT P6SM BKN025
     FM281500 06004KT P6SM BKN030
     FM281700 12004KT P6SM SCT030 BKN080
     FM290400 14003KT P6SM FEW050 SCT100=



000
FTUS44 KMRX 281322 AAA
TAFTRI
TAF AMD
KTRI 281322Z 2813/2912 13003KT P6SM SCT040=



000
FTUS44 KMRX 281322 AAA
TAFTRI
TAF AMD
KTRI 281322Z 2813/2912 13003KT P6SM SCT040=



000
FTUS44 KMRX 281322 AAA
TAFTRI
TAF AMD
KTRI 281322Z 2813/2912 13003KT P6SM SCT040=



000
FTUS44 KMRX 281322 AAA
TAFTRI
TAF AMD
KTRI 281322Z 2813/2912 13003KT P6SM SCT040=



000
FTUS44 KMRX 281127
TAFCHA
TAF
KCHA 281127Z 2812/2912 02006KT P6SM BKN035
     FM281400 08006KT P6SM SCT040
     FM290400 14003KT P6SM FEW050 SCT100=



000
FTUS44 KMRX 281127
TAFTRI
TAF
KTRI 281127Z 2812/2912 00000KT 5SM BR SCT080
     FM281400 13003KT P6SM SCT040
     FM290400 VRB03KT P6SM SCT060 BKN120=



000
FTUS44 KMRX 281127
TAFTYS
TAF
KTYS 281127Z 2812/2912 04005KT P6SM FEW030 SCT080
     FM281400 06004KT P6SM SCT050
     FM290200 14003KT P6SM SCT070
     FM290800 04003KT 6SM BR FEW060 SCT120=



000
FTUS44 KMRX 281127
TAFTYS
TAF
KTYS 281127Z 2812/2912 04005KT P6SM FEW030 SCT080
     FM281400 06004KT P6SM SCT050
     FM290200 14003KT P6SM SCT070
     FM290800 04003KT 6SM BR FEW060 SCT120=



000
FTUS44 KMRX 281127
TAFCHA
TAF
KCHA 281127Z 2812/2912 02006KT P6SM BKN035
     FM281400 08006KT P6SM SCT040
     FM290400 14003KT P6SM FEW050 SCT100=



000
FTUS44 KMRX 281127
TAFTRI
TAF
KTRI 281127Z 2812/2912 00000KT 5SM BR SCT080
     FM281400 13003KT P6SM SCT040
     FM290400 VRB03KT P6SM SCT060 BKN120=



000
FTUS44 KMRX 281127
TAFCHA
TAF
KCHA 281127Z 2812/2912 02006KT P6SM BKN035
     FM281400 08006KT P6SM SCT040
     FM290400 14003KT P6SM FEW050 SCT100=



000
FTUS44 KMRX 281127
TAFTRI
TAF
KTRI 281127Z 2812/2912 00000KT 5SM BR SCT080
     FM281400 13003KT P6SM SCT040
     FM290400 VRB03KT P6SM SCT060 BKN120=



000
FTUS44 KMRX 281127
TAFTYS
TAF
KTYS 281127Z 2812/2912 04005KT P6SM FEW030 SCT080
     FM281400 06004KT P6SM SCT050
     FM290200 14003KT P6SM SCT070
     FM290800 04003KT 6SM BR FEW060 SCT120=



000
FTUS44 KMRX 281127
TAFTRI
TAF
KTRI 281127Z 2812/2912 00000KT 5SM BR SCT080
     FM281400 13003KT P6SM SCT040
     FM290400 VRB03KT P6SM SCT060 BKN120=



000
FTUS44 KMRX 281127
TAFCHA
TAF
KCHA 281127Z 2812/2912 02006KT P6SM BKN035
     FM281400 08006KT P6SM SCT040
     FM290400 14003KT P6SM FEW050 SCT100=



000
FTUS44 KMRX 281127
TAFTYS
TAF
KTYS 281127Z 2812/2912 04005KT P6SM FEW030 SCT080
     FM281400 06004KT P6SM SCT050
     FM290200 14003KT P6SM SCT070
     FM290800 04003KT 6SM BR FEW060 SCT120=



000
FTUS44 KMRX 280524
TAFTRI
TAF
KTRI 280524Z 2806/2906 00000KT P6SM SCT070
     FM280800 00000KT 5SM BR FEW060
      TEMPO 2810/2813 3SM BR BKN035
     FM281400 13003KT P6SM SCT040=



000
FTUS44 KMRX 280524
TAFTYS
TAF
KTYS 280524Z 2806/2906 04005KT P6SM SCT080
     FM281400 06004KT P6SM SCT050
     FM290200 14003KT P6SM SCT070=



000
FTUS44 KMRX 280524
TAFCHA
TAF
KCHA 280524Z 2806/2906 02006KT P6SM SCT060
     FM280900 02003KT P6SM FEW060
     FM281400 08006KT P6SM SCT040=



000
FTUS44 KMRX 280524
TAFCHA
TAF
KCHA 280524Z 2806/2906 02006KT P6SM SCT060
     FM280900 02003KT P6SM FEW060
     FM281400 08006KT P6SM SCT040=



000
FTUS44 KMRX 280524
TAFTYS
TAF
KTYS 280524Z 2806/2906 04005KT P6SM SCT080
     FM281400 06004KT P6SM SCT050
     FM290200 14003KT P6SM SCT070=



000
FTUS44 KMRX 280524
TAFTRI
TAF
KTRI 280524Z 2806/2906 00000KT P6SM SCT070
     FM280800 00000KT 5SM BR FEW060
      TEMPO 2810/2813 3SM BR BKN035
     FM281400 13003KT P6SM SCT040=



000
FTUS44 KMRX 280524
TAFTRI
TAF
KTRI 280524Z 2806/2906 00000KT P6SM SCT070
     FM280800 00000KT 5SM BR FEW060
      TEMPO 2810/2813 3SM BR BKN035
     FM281400 13003KT P6SM SCT040=



000
FTUS44 KMRX 280524
TAFCHA
TAF
KCHA 280524Z 2806/2906 02006KT P6SM SCT060
     FM280900 02003KT P6SM FEW060
     FM281400 08006KT P6SM SCT040=



000
FTUS44 KMRX 280524
TAFTYS
TAF
KTYS 280524Z 2806/2906 04005KT P6SM SCT080
     FM281400 06004KT P6SM SCT050
     FM290200 14003KT P6SM SCT070=



000
FTUS44 KMRX 280524
TAFCHA
TAF
KCHA 280524Z 2806/2906 02006KT P6SM SCT060
     FM280900 02003KT P6SM FEW060
     FM281400 08006KT P6SM SCT040=



000
FTUS44 KMRX 280524
TAFTRI
TAF
KTRI 280524Z 2806/2906 00000KT P6SM SCT070
     FM280800 00000KT 5SM BR FEW060
      TEMPO 2810/2813 3SM BR BKN035
     FM281400 13003KT P6SM SCT040=



000
FTUS44 KMRX 280524
TAFTYS
TAF
KTYS 280524Z 2806/2906 04005KT P6SM SCT080
     FM281400 06004KT P6SM SCT050
     FM290200 14003KT P6SM SCT070=



000
FTUS44 KMRX 280342 AAA
TAFCHA
TAF AMD
KCHA 280342Z 2804/2824 02004KT P6SM BKN060
     FM281400 08006KT P6SM SCT040=



000
FTUS44 KMRX 280342 AAA
TAFCHA
TAF AMD
KCHA 280342Z 2804/2824 02004KT P6SM BKN060
     FM281400 08006KT P6SM SCT040=



000
FTUS44 KMRX 272320
TAFTRI
TAF
KTRI 272320Z 2800/2824 34006KT P6SM SCT050
     FM280100 VRB02KT P6SM SCT060
     FM280800 00000KT 5SM BR SKC
      TEMPO 2810/2813 2SM BR BKN035
     FM281300 13003KT P6SM SCT040=



000
FTUS44 KMRX 272320
TAFCHA
TAF
KCHA 272320Z 2800/2824 02008KT P6SM SCT060
     FM280100 02004KT P6SM SKC
     FM281400 08006KT P6SM SCT040=



000
FTUS44 KMRX 272320
TAFTRI
TAF
KTRI 272320Z 2800/2824 34006KT P6SM SCT050
     FM280100 VRB02KT P6SM SCT060
     FM280800 00000KT 5SM BR SKC
      TEMPO 2810/2813 2SM BR BKN035
     FM281300 13003KT P6SM SCT040=



000
FTUS44 KMRX 272320
TAFTRI
TAF
KTRI 272320Z 2800/2824 34006KT P6SM SCT050
     FM280100 VRB02KT P6SM SCT060
     FM280800 00000KT 5SM BR SKC
      TEMPO 2810/2813 2SM BR BKN035
     FM281300 13003KT P6SM SCT040=



000
FTUS44 KMRX 272320
TAFCHA
TAF
KCHA 272320Z 2800/2824 02008KT P6SM SCT060
     FM280100 02004KT P6SM SKC
     FM281400 08006KT P6SM SCT040=



000
FTUS44 KMRX 272320
TAFTYS
TAF
KTYS 272320Z 2800/2824 05007KT P6SM SCT060
     FM280100 02003KT P6SM FEW060
     FM281400 06004KT P6SM SCT050=



000
FTUS44 KMRX 272320
TAFCHA
TAF
KCHA 272320Z 2800/2824 02008KT P6SM SCT060
     FM280100 02004KT P6SM SKC
     FM281400 08006KT P6SM SCT040=



000
FTUS44 KMRX 272320
TAFTYS
TAF
KTYS 272320Z 2800/2824 05007KT P6SM SCT060
     FM280100 02003KT P6SM FEW060
     FM281400 06004KT P6SM SCT050=



000
FTUS44 KMRX 272320
TAFTRI
TAF
KTRI 272320Z 2800/2824 34006KT P6SM SCT050
     FM280100 VRB02KT P6SM SCT060
     FM280800 00000KT 5SM BR SKC
      TEMPO 2810/2813 2SM BR BKN035
     FM281300 13003KT P6SM SCT040=



000
FTUS44 KMRX 272320
TAFCHA
TAF
KCHA 272320Z 2800/2824 02008KT P6SM SCT060
     FM280100 02004KT P6SM SKC
     FM281400 08006KT P6SM SCT040=



000
FTUS44 KMRX 272320
TAFTYS
TAF
KTYS 272320Z 2800/2824 05007KT P6SM SCT060
     FM280100 02003KT P6SM FEW060
     FM281400 06004KT P6SM SCT050=



000
FTUS44 KMRX 271730
TAFCHA
TAF
KCHA 271730Z 2718/2818 02008KT P6SM SCT060
     FM280100 02004KT P6SM SKC
     FM281400 08006KT P6SM SCT040=



000
FTUS44 KMRX 271730
TAFTRI
TAF
KTRI 271730Z 2718/2818 34006KT P6SM SCT050
     FM280100 VRB02KT P6SM SCT060
     FM280800 00000KT 5SM BR SKC
      TEMPO 2810/2813 2SM BR BKN035
     FM281300 13003KT P6SM SCT040=



000
FTUS44 KMRX 271730
TAFTRI
TAF
KTRI 271730Z 2718/2818 34006KT P6SM SCT050
     FM280100 VRB02KT P6SM SCT060
     FM280800 00000KT 5SM BR SKC
      TEMPO 2810/2813 2SM BR BKN035
     FM281300 13003KT P6SM SCT040=



000
FTUS44 KMRX 271730
TAFTYS
TAF
KTYS 271730Z 2718/2818 05007KT P6SM SCT060
     FM280100 02003KT P6SM FEW060
     FM281400 06004KT P6SM SCT050=



000
FTUS44 KMRX 271730
TAFCHA
TAF
KCHA 271730Z 2718/2818 02008KT P6SM SCT060
     FM280100 02004KT P6SM SKC
     FM281400 08006KT P6SM SCT040=



000
FTUS44 KMRX 271730
TAFTYS
TAF
KTYS 271730Z 2718/2818 05007KT P6SM SCT060
     FM280100 02003KT P6SM FEW060
     FM281400 06004KT P6SM SCT050=



000
FTUS44 KMRX 271730
TAFTRI
TAF
KTRI 271730Z 2718/2818 34006KT P6SM SCT050
     FM280100 VRB02KT P6SM SCT060
     FM280800 00000KT 5SM BR SKC
      TEMPO 2810/2813 2SM BR BKN035
     FM281300 13003KT P6SM SCT040=



000
FTUS44 KMRX 271730
TAFTYS
TAF
KTYS 271730Z 2718/2818 05007KT P6SM SCT060
     FM280100 02003KT P6SM FEW060
     FM281400 06004KT P6SM SCT050=



000
FTUS44 KMRX 271730
TAFCHA
TAF
KCHA 271730Z 2718/2818 02008KT P6SM SCT060
     FM280100 02004KT P6SM SKC
     FM281400 08006KT P6SM SCT040=



000
FTUS44 KMRX 271132
TAFCHA
TAF
KCHA 271132Z 2712/2812 03008KT P6SM SCT060
     FM280100 00000KT P6SM SKC=



000
FTUS44 KMRX 271132
TAFTRI
TAF
KTRI 271132Z 2712/2812 00000KT P6SM FEW050
      TEMPO 2712/2714 BKN050
     FM271500 34006KT P6SM SCT050
     FM280100 00000KT P6SM SCT060=



000
FTUS44 KMRX 271132
TAFCHA
TAF
KCHA 271132Z 2712/2812 03008KT P6SM SCT060
     FM280100 00000KT P6SM SKC=



000
FTUS44 KMRX 271132
TAFTRI
TAF
KTRI 271132Z 2712/2812 00000KT P6SM FEW050
      TEMPO 2712/2714 BKN050
     FM271500 34006KT P6SM SCT050
     FM280100 00000KT P6SM SCT060=



000
FTUS44 KMRX 271132
TAFTRI
TAF
KTRI 271132Z 2712/2812 00000KT P6SM FEW050
      TEMPO 2712/2714 BKN050
     FM271500 34006KT P6SM SCT050
     FM280100 00000KT P6SM SCT060=



000
FTUS44 KMRX 271132
TAFTYS
TAF
KTYS 271132Z 2712/2812 05008KT P6SM SCT060
     FM280100 02003KT P6SM SKC=



000
FTUS44 KMRX 271132
TAFCHA
TAF
KCHA 271132Z 2712/2812 03008KT P6SM SCT060
     FM280100 00000KT P6SM SKC=



000
FTUS44 KMRX 271132
TAFTRI
TAF
KTRI 271132Z 2712/2812 00000KT P6SM FEW050
      TEMPO 2712/2714 BKN050
     FM271500 34006KT P6SM SCT050
     FM280100 00000KT P6SM SCT060=



000
FTUS44 KMRX 271132
TAFTYS
TAF
KTYS 271132Z 2712/2812 05008KT P6SM SCT060
     FM280100 02003KT P6SM SKC=



000
FTUS44 KMRX 271132
TAFTYS
TAF
KTYS 271132Z 2712/2812 05008KT P6SM SCT060
     FM280100 02003KT P6SM SKC=



000
FTUS44 KMRX 271132
TAFCHA
TAF
KCHA 271132Z 2712/2812 03008KT P6SM SCT060
     FM280100 00000KT P6SM SKC=



000
FTUS44 KMRX 271132
TAFTYS
TAF
KTYS 271132Z 2712/2812 05008KT P6SM SCT060
     FM280100 02003KT P6SM SKC=



000
FTUS44 KMRX 270838 AAA
TAFTRI
TAF AMD
KTRI 270838Z 2709/2806 00000KT P6SM FEW050
      TEMPO 2709/2712 4SM BR BKN050
     FM271500 VRB03KT P6SM SCT040
     FM280100 00000KT P6SM SCT060=



000
FTUS44 KMRX 270838 AAA
TAFTRI
TAF AMD
KTRI 270838Z 2709/2806 00000KT P6SM FEW050
      TEMPO 2709/2712 4SM BR BKN050
     FM271500 VRB03KT P6SM SCT040
     FM280100 00000KT P6SM SCT060=



000
FTUS44 KMRX 270838 AAA
TAFTRI
TAF AMD
KTRI 270838Z 2709/2806 00000KT P6SM FEW050
      TEMPO 2709/2712 4SM BR BKN050
     FM271500 VRB03KT P6SM SCT040
     FM280100 00000KT P6SM SCT060=



000
FTUS44 KMRX 270838 AAA
TAFTRI
TAF AMD
KTRI 270838Z 2709/2806 00000KT P6SM FEW050
      TEMPO 2709/2712 4SM BR BKN050
     FM271500 VRB03KT P6SM SCT040
     FM280100 00000KT P6SM SCT060=



000
FTUS44 KMRX 270803 AAA
TAFTYS
TAF AMD
KTYS 270803Z 2708/2806 04005KT P6SM FEW060
      TEMPO 2708/2712 BKN060
     FM271500 05006KT P6SM FEW060
     FM280100 03003KT P6SM SKC=



000
FTUS44 KMRX 270803 AAA
TAFTYS
TAF AMD
KTYS 270803Z 2708/2806 04005KT P6SM FEW060
      TEMPO 2708/2712 BKN060
     FM271500 05006KT P6SM FEW060
     FM280100 03003KT P6SM SKC=



000
FTUS44 KMRX 270521
TAFTRI
TAF
KTRI 270521Z 2706/2806 00000KT P6SM FEW060
      TEMPO 2709/2712 4SM BR
     FM271500 VRB03KT P6SM SCT040
     FM280100 00000KT P6SM SCT060=



000
FTUS44 KMRX 270521
TAFTYS
TAF
KTYS 270521Z 2706/2806 04005KT P6SM FEW060
     FM271500 05006KT P6SM FEW060
     FM280100 03003KT P6SM SKC=



000
FTUS44 KMRX 270521
TAFCHA
TAF
KCHA 270521Z 2706/2806 02003KT P6SM SKC
     FM271500 03007KT P6SM FEW050
     FM280100 00000KT P6SM SKC=



000
FTUS44 KMRX 270521
TAFTRI
TAF
KTRI 270521Z 2706/2806 00000KT P6SM FEW060
      TEMPO 2709/2712 4SM BR
     FM271500 VRB03KT P6SM SCT040
     FM280100 00000KT P6SM SCT060=



000
FTUS44 KMRX 270521
TAFCHA
TAF
KCHA 270521Z 2706/2806 02003KT P6SM SKC
     FM271500 03007KT P6SM FEW050
     FM280100 00000KT P6SM SKC=



000
FTUS44 KMRX 270521
TAFTYS
TAF
KTYS 270521Z 2706/2806 04005KT P6SM FEW060
     FM271500 05006KT P6SM FEW060
     FM280100 03003KT P6SM SKC=



000
FTUS44 KMRX 270521
TAFTRI
TAF
KTRI 270521Z 2706/2806 00000KT P6SM FEW060
      TEMPO 2709/2712 4SM BR
     FM271500 VRB03KT P6SM SCT040
     FM280100 00000KT P6SM SCT060=



000
FTUS44 KMRX 270521
TAFTRI
TAF
KTRI 270521Z 2706/2806 00000KT P6SM FEW060
      TEMPO 2709/2712 4SM BR
     FM271500 VRB03KT P6SM SCT040
     FM280100 00000KT P6SM SCT060=



000
FTUS44 KMRX 270521
TAFCHA
TAF
KCHA 270521Z 2706/2806 02003KT P6SM SKC
     FM271500 03007KT P6SM FEW050
     FM280100 00000KT P6SM SKC=



000
FTUS44 KMRX 270521
TAFTYS
TAF
KTYS 270521Z 2706/2806 04005KT P6SM FEW060
     FM271500 05006KT P6SM FEW060
     FM280100 03003KT P6SM SKC=



000
FTUS44 KMRX 270521
TAFTYS
TAF
KTYS 270521Z 2706/2806 04005KT P6SM FEW060
     FM271500 05006KT P6SM FEW060
     FM280100 03003KT P6SM SKC=



000
FTUS44 KMRX 270521
TAFCHA
TAF
KCHA 270521Z 2706/2806 02003KT P6SM SKC
     FM271500 03007KT P6SM FEW050
     FM280100 00000KT P6SM SKC=



000
FTUS44 KMRX 262320
TAFTYS
TAF
KTYS 262320Z 2700/2724 05008KT P6SM FEW045
     FM270100 04005KT P6SM SKC
     FM271300 05006KT P6SM FEW060=



000
FTUS44 KMRX 262320
TAFTRI
TAF
KTRI 262320Z 2700/2724 01005KT P6SM SCT050
     FM270100 05002KT P6SM SKC
      TEMPO 2710/2713 3SM BR SCT030
     FM271300 07003KT P6SM SCT035=



000
FTUS44 KMRX 262320
TAFCHA
TAF
KCHA 262320Z 2700/2724 02011KT P6SM FEW050
     FM270100 01007KT P6SM SKC
     FM271500 04006KT P6SM FEW040=



000
FTUS44 KMRX 262320
TAFCHA
TAF
KCHA 262320Z 2700/2724 02011KT P6SM FEW050
     FM270100 01007KT P6SM SKC
     FM271500 04006KT P6SM FEW040=



000
FTUS44 KMRX 262320
TAFTYS
TAF
KTYS 262320Z 2700/2724 05008KT P6SM FEW045
     FM270100 04005KT P6SM SKC
     FM271300 05006KT P6SM FEW060=



000
FTUS44 KMRX 262320
TAFTRI
TAF
KTRI 262320Z 2700/2724 01005KT P6SM SCT050
     FM270100 05002KT P6SM SKC
      TEMPO 2710/2713 3SM BR SCT030
     FM271300 07003KT P6SM SCT035=



000
FTUS44 KMRX 261730
TAFTRI
TAF
KTRI 261730Z 2618/2718 01005KT P6SM SCT050
     FM270100 05002KT P6SM SKC
      TEMPO 2710/2713 3SM BR SCT030
     FM271300 07003KT P6SM SCT035=



000
FTUS44 KMRX 261730
TAFTYS
TAF
KTYS 261730Z 2618/2718 05008KT P6SM FEW045
     FM270100 04005KT P6SM SKC
     FM271300 05006KT P6SM FEW060=



000
FTUS44 KMRX 261730
TAFCHA
TAF
KCHA 261730Z 2618/2718 02011KT P6SM FEW050
     FM270100 01007KT P6SM SKC
     FM271500 04006KT P6SM FEW040=



000
FTUS44 KMRX 261730
TAFTYS
TAF
KTYS 261730Z 2618/2718 05008KT P6SM FEW045
     FM270100 04005KT P6SM SKC
     FM271300 05006KT P6SM FEW060=



000
FTUS44 KMRX 261730
TAFCHA
TAF
KCHA 261730Z 2618/2718 02011KT P6SM FEW050
     FM270100 01007KT P6SM SKC
     FM271500 04006KT P6SM FEW040=



000
FTUS44 KMRX 261730
TAFTYS
TAF
KTYS 261730Z 2618/2718 05008KT P6SM FEW045
     FM270100 04005KT P6SM SKC
     FM271300 05006KT P6SM FEW060=



000
FTUS44 KMRX 261730
TAFTRI
TAF
KTRI 261730Z 2618/2718 01005KT P6SM SCT050
     FM270100 05002KT P6SM SKC
      TEMPO 2710/2713 3SM BR SCT030
     FM271300 07003KT P6SM SCT035=



000
FTUS44 KMRX 261730
TAFCHA
TAF
KCHA 261730Z 2618/2718 02011KT P6SM FEW050
     FM270100 01007KT P6SM SKC
     FM271500 04006KT P6SM FEW040=



000
FTUS44 KMRX 261730
TAFTRI
TAF
KTRI 261730Z 2618/2718 01005KT P6SM SCT050
     FM270100 05002KT P6SM SKC
      TEMPO 2710/2713 3SM BR SCT030
     FM271300 07003KT P6SM SCT035=



000
FTUS44 KMRX 261122
TAFCHA
TAF
KCHA 261122Z 2612/2712 34003KT P6SM SKC
     FM261600 01009KT P6SM FEW060
     FM270100 00000KT P6SM SKC=



000
FTUS44 KMRX 261122
TAFTRI
TAF
KTRI 261122Z 2612/2712 00000KT P6SM FEW050
     FM261500 30006KT P6SM SCT050
     FM270100 00000KT P6SM SKC=



000
FTUS44 KMRX 261122
TAFTYS
TAF
KTYS 261122Z 2612/2712 VRB03KT P6SM SKC
     FM261500 03007KT P6SM FEW060
     FM270100 04003KT P6SM SKC=



000
FTUS44 KMRX 261122
TAFTRI
TAF
KTRI 261122Z 2612/2712 00000KT P6SM FEW050
     FM261500 30006KT P6SM SCT050
     FM270100 00000KT P6SM SKC=



000
FTUS44 KMRX 261122
TAFCHA
TAF
KCHA 261122Z 2612/2712 34003KT P6SM SKC
     FM261600 01009KT P6SM FEW060
     FM270100 00000KT P6SM SKC=



000
FTUS44 KMRX 261122
TAFTYS
TAF
KTYS 261122Z 2612/2712 VRB03KT P6SM SKC
     FM261500 03007KT P6SM FEW060
     FM270100 04003KT P6SM SKC=



000
FTUS44 KMRX 261122
TAFTRI
TAF
KTRI 261122Z 2612/2712 00000KT P6SM FEW050
     FM261500 30006KT P6SM SCT050
     FM270100 00000KT P6SM SKC=



000
FTUS44 KMRX 261122
TAFTYS
TAF
KTYS 261122Z 2612/2712 VRB03KT P6SM SKC
     FM261500 03007KT P6SM FEW060
     FM270100 04003KT P6SM SKC=



000
FTUS44 KMRX 261122
TAFCHA
TAF
KCHA 261122Z 2612/2712 34003KT P6SM SKC
     FM261600 01009KT P6SM FEW060
     FM270100 00000KT P6SM SKC=



000
FTUS44 KMRX 261122
TAFTRI
TAF
KTRI 261122Z 2612/2712 00000KT P6SM FEW050
     FM261500 30006KT P6SM SCT050
     FM270100 00000KT P6SM SKC=



000
FTUS44 KMRX 261122
TAFCHA
TAF
KCHA 261122Z 2612/2712 34003KT P6SM SKC
     FM261600 01009KT P6SM FEW060
     FM270100 00000KT P6SM SKC=



000
FTUS44 KMRX 261122
TAFTYS
TAF
KTYS 261122Z 2612/2712 VRB03KT P6SM SKC
     FM261500 03007KT P6SM FEW060
     FM270100 04003KT P6SM SKC=



000
FTUS44 KMRX 260813 AAA
TAFTRI
TAF AMD
KTRI 260813Z 2608/2706 00000KT P6SM SKC
      TEMPO 2608/2612 4SM BR FEW010 BKN070
     FM261500 30006KT P6SM FEW050
     FM270100 00000KT P6SM SKC=



000
FTUS44 KMRX 260813 AAA
TAFTRI
TAF AMD
KTRI 260813Z 2608/2706 00000KT P6SM SKC
      TEMPO 2608/2612 4SM BR FEW010 BKN070
     FM261500 30006KT P6SM FEW050
     FM270100 00000KT P6SM SKC=



000
FTUS44 KMRX 260813 AAA
TAFTRI
TAF AMD
KTRI 260813Z 2608/2706 00000KT P6SM SKC
      TEMPO 2608/2612 4SM BR FEW010 BKN070
     FM261500 30006KT P6SM FEW050
     FM270100 00000KT P6SM SKC=



000
FTUS44 KMRX 260813 AAA
TAFTRI
TAF AMD
KTRI 260813Z 2608/2706 00000KT P6SM SKC
      TEMPO 2608/2612 4SM BR FEW010 BKN070
     FM261500 30006KT P6SM FEW050
     FM270100 00000KT P6SM SKC=



    US Dept of Commerce
    National Oceanic and Atmospheric Administration
    National Weather Service
    1325 East West Highway
    Silver Spring, MD 20910
    Page Author: NWS Internet Services Team
Disclaimer
Information Quality
Credits
Glossary
Privacy Policy
Freedom of Information Act (FOIA)
About Us
Career Opportunities